createdAt,value
2023-02-27T00:00:33.533Z,101029.19
2023-02-27T00:03:21.375Z,101034.75
2023-02-27T00:05:49.137Z,101037.52
2023-02-27T00:08:16.898Z,101037.44
2023-02-27T00:10:44.870Z,101038.52
2023-02-27T00:13:12.829Z,101038.17
2023-02-27T00:15:41.202Z,101039.42
2023-02-27T00:18:09.209Z,101044.21
2023-02-27T00:20:38.396Z,101047.02
2023-02-27T00:23:07.824Z,101053.11
2023-02-27T00:25:35.848Z,101057.90
2023-02-27T00:28:04.738Z,101057.23
2023-02-27T00:30:32.951Z,101059.30
2023-02-27T00:33:00.990Z,101057.09
2023-02-27T00:35:28.940Z,101059.79
2023-02-27T00:37:56.856Z,101063.77
2023-02-27T00:40:25.701Z,101063.83
2023-02-27T00:42:53.873Z,101063.89
2023-02-27T00:45:22.045Z,101063.74
2023-02-27T00:47:49.909Z,101064.61
2023-02-27T00:50:17.777Z,101062.40
2023-02-27T00:52:45.605Z,101057.02
2023-02-27T00:55:13.356Z,101060.20
2023-02-27T00:57:41.410Z,101061.50
2023-02-27T07:02:15.704Z,101365.00
2023-02-27T07:04:43.723Z,101372.67
2023-02-27T07:07:35.851Z,101374.02
2023-02-27T07:09:59.287Z,101371.60
2023-02-27T07:12:27.068Z,101371.74
2023-02-27T07:14:54.897Z,101375.78
2023-02-27T07:17:22.760Z,101377.88
2023-02-27T07:19:50.627Z,101379.76
2023-02-27T07:22:18.492Z,101381.66
2023-02-27T07:24:46.208Z,101382.65
2023-02-27T07:27:13.941Z,101385.48
2023-02-27T07:29:42.503Z,101384.92
2023-02-27T07:32:11.493Z,101387.35
2023-02-27T07:34:39.365Z,101391.58
2023-02-27T07:37:08.250Z,101393.50
2023-02-27T07:39:36.119Z,101395.21
2023-02-27T07:42:04.187Z,101393.05
2023-02-27T07:44:33.072Z,101391.20
2023-02-27T07:47:00.939Z,101394.98
2023-02-27T07:49:28.702Z,101397.19
2023-02-27T07:51:56.782Z,101397.20
2023-02-27T07:54:24.851Z,101401.23
2023-02-27T07:56:52.618Z,101397.77
2023-02-27T07:59:20.588Z,101401.54
2023-02-27T08:01:48.441Z,101405.34
2023-02-27T08:04:16.290Z,101403.64
2023-02-27T08:06:44.893Z,101403.68
2023-02-27T08:09:12.712Z,101401.47
2023-02-27T08:11:40.623Z,101410.88
2023-02-27T08:14:08.485Z,101412.02
2023-02-27T08:16:36.611Z,101413.59
2023-02-27T08:19:05.042Z,101414.36
2023-02-27T08:21:33.039Z,101410.51
2023-02-27T08:24:00.796Z,101410.80
2023-02-27T08:26:28.994Z,101417.52
2023-02-27T08:28:57.325Z,101419.11
2023-02-27T08:31:25.749Z,101418.10
2023-02-27T08:34:01.116Z,101422.73
2023-02-27T08:36:35.979Z,101420.40
2023-02-27T08:39:04.548Z,101420.01
2023-02-27T08:41:32.816Z,101424.36
2023-02-27T08:44:01.017Z,101426.98
2023-02-27T08:46:29.660Z,101423.19
2023-02-27T08:48:57.778Z,101426.90
2023-02-27T08:51:26.024Z,101426.06
2023-02-27T08:53:58.812Z,101428.23
2023-02-27T08:56:27.746Z,101436.80
2023-02-27T08:58:56.251Z,101440.11
2023-02-27T09:01:28.877Z,101438.96
2023-02-27T09:03:57.852Z,101444.21
2023-02-27T09:06:26.635Z,101448.15
2023-02-27T09:08:56.508Z,101454.13
2023-02-27T09:11:26.567Z,101451.52
2023-02-27T09:13:55.245Z,101455.84
2023-02-27T09:16:24.058Z,101456.03
2023-02-27T09:18:53.071Z,101457.07
2023-02-27T09:21:26.364Z,101463.80
2023-02-27T09:23:55.112Z,101470.04
2023-02-27T09:26:32.118Z,101469.37
2023-02-27T09:29:08.757Z,101470.44
2023-02-27T09:31:36.748Z,101476.03
2023-02-27T09:34:04.998Z,101477.07
2023-02-27T09:36:32.981Z,101484.05
2023-02-27T09:39:01.243Z,101485.60
2023-02-27T09:42:04.044Z,101484.65
2023-02-27T09:44:46.128Z,101489.07
2023-02-27T09:47:37.453Z,101491.45
2023-02-27T09:50:11.996Z,101499.86
2023-02-27T09:52:40.074Z,101500.48
2023-02-27T09:55:17.647Z,101501.46
2023-02-27T09:58:27.683Z,101501.70
2023-02-27T10:01:00.787Z,101505.70
2023-02-27T10:03:58.000Z,101509.30
2023-02-27T10:06:43.704Z,101508.13
2023-02-27T10:09:33.078Z,101506.27
2023-02-27T10:12:39.967Z,101505.40
2023-02-27T10:15:21.006Z,101515.21
2023-02-27T10:17:53.508Z,101518.45
2023-02-27T10:20:29.154Z,101521.98
2023-02-27T10:23:02.038Z,101522.09
2023-02-27T10:25:33.439Z,101518.73
2023-02-27T10:28:13.542Z,101518.55
2023-02-27T10:30:44.941Z,101519.17
2023-02-27T10:33:37.437Z,101521.35
2023-02-27T10:36:20.639Z,101521.11
2023-02-27T10:38:59.770Z,101527.66
2023-02-27T10:41:29.206Z,101528.14
2023-02-27T10:44:00.133Z,101523.39
2023-02-27T10:46:31.272Z,101522.77
2023-02-27T10:49:00.775Z,101522.03
2023-02-27T10:51:35.198Z,101525.78
2023-02-27T10:54:25.705Z,101530.97
2023-02-27T10:57:02.549Z,101536.38
2023-02-27T10:59:36.877Z,101535.49
2023-02-27T11:02:21.635Z,101534.20
2023-02-27T11:05:00.423Z,101534.59
2023-02-27T11:07:36.357Z,101535.23
2023-02-27T11:10:26.500Z,101537.27
2023-02-27T11:13:05.193Z,101534.54
2023-02-27T11:15:37.430Z,101526.39
2023-02-27T11:18:29.275Z,101523.05
2023-02-27T11:21:15.777Z,101526.59
2023-02-27T11:24:03.997Z,101531.16
2023-02-27T11:26:41.365Z,101536.05
2023-02-27T11:29:18.555Z,101537.66
2023-02-27T11:31:54.382Z,101539.80
2023-02-27T11:34:39.160Z,101541.22
2023-02-27T11:37:22.174Z,101533.90
2023-02-27T11:39:56.094Z,101533.49
2023-02-27T11:42:30.703Z,101529.53
2023-02-27T11:45:04.171Z,101542.30
2023-02-27T11:47:38.723Z,101537.27
2023-02-27T11:50:37.514Z,101537.67
2023-02-27T11:53:33.315Z,101540.39
2023-02-27T11:56:04.378Z,101537.69
2023-02-27T11:58:41.269Z,101535.20
2023-02-27T12:01:49.526Z,101541.54
2023-02-27T12:04:40.811Z,101539.26
2023-02-27T12:07:30.361Z,101535.70
2023-02-27T12:10:13.088Z,101541.34
2023-02-27T12:13:02.795Z,101545.93
2023-02-27T12:15:42.997Z,101546.08
2023-02-27T12:18:24.418Z,101545.39
2023-02-27T12:20:59.855Z,101550.34
2023-02-27T12:23:46.020Z,101546.33
2023-02-27T12:26:25.115Z,101551.05
2023-02-27T12:29:05.200Z,101553.02
2023-02-27T12:31:44.260Z,101554.67
2023-02-27T12:34:30.419Z,101557.39
2023-02-27T12:37:05.671Z,101555.48
2023-02-27T12:39:35.057Z,101554.91
2023-02-27T12:42:27.804Z,101560.58
2023-02-27T12:45:14.307Z,101567.67
2023-02-27T12:48:04.324Z,101568.49
2023-02-27T12:50:49.568Z,101575.11
2023-02-27T12:53:39.445Z,101580.55
2023-02-27T12:56:15.203Z,101576.98
2023-02-27T12:59:12.139Z,101574.24
2023-02-27T13:01:58.648Z,101578.02
2023-02-27T13:04:33.183Z,101580.69
2023-02-27T13:07:48.257Z,101576.05
2023-02-27T13:10:23.692Z,101572.99
2023-02-27T13:13:17.299Z,101576.24
2023-02-27T13:16:01.920Z,101578.86
2023-02-27T13:18:54.356Z,101585.52
2023-02-27T13:21:29.057Z,101586.31
2023-02-27T13:24:03.317Z,101584.14
2023-02-27T13:26:37.726Z,101583.73
2023-02-27T13:29:06.608Z,101585.17
2023-02-27T13:31:50.290Z,101589.89
2023-02-27T13:34:44.615Z,101590.98
2023-02-27T13:37:12.715Z,101590.55
2023-02-27T13:39:47.060Z,101593.85
2023-02-27T13:42:27.079Z,101596.32
2023-02-27T13:44:57.022Z,101598.32
2023-02-27T13:47:30.845Z,101598.05
2023-02-27T13:50:25.686Z,101596.80
2023-02-27T13:52:53.943Z,101598.48
2023-02-27T13:55:37.178Z,101599.73
2023-02-27T13:58:06.077Z,101600.59
2023-02-27T14:00:38.128Z,101598.95
2023-02-27T14:03:25.912Z,101602.89
2023-02-27T14:05:58.553Z,101600.48
2023-02-27T14:08:51.056Z,101601.15
2023-02-27T14:11:24.293Z,101596.00
2023-02-27T14:13:54.710Z,101598.59
2023-02-27T14:16:38.132Z,101602.20
2023-02-27T14:19:18.015Z,101605.52
2023-02-27T14:22:16.883Z,101605.32
2023-02-27T14:25:02.550Z,101609.70
2023-02-27T14:27:38.716Z,101610.89
2023-02-27T14:30:21.893Z,101608.55
2023-02-27T14:32:57.094Z,101614.58
2023-02-27T14:35:26.506Z,101613.20
2023-02-27T14:37:55.264Z,101612.61
2023-02-27T14:40:30.869Z,101618.53
2023-02-27T14:43:20.998Z,101618.11
2023-02-27T14:45:49.611Z,101620.05
2023-02-27T14:48:26.882Z,101621.70
2023-02-27T14:50:58.047Z,101622.27
2023-02-27T14:53:27.650Z,101623.46
2023-02-27T14:55:59.272Z,101626.59
2023-02-27T14:58:28.305Z,101628.91
2023-02-27T15:00:58.054Z,101628.85
2023-02-27T15:03:49.902Z,101629.40
2023-02-27T15:06:21.229Z,101630.05
2023-02-27T15:08:54.444Z,101631.20
2023-02-27T15:11:24.563Z,101637.96
2023-02-27T15:14:04.922Z,101639.27
2023-02-27T15:16:37.562Z,101641.33
2023-02-27T15:19:23.084Z,101644.13
2023-02-27T15:22:00.585Z,101647.08
2023-02-27T15:24:43.800Z,101646.44
2023-02-27T15:27:21.100Z,101651.48
2023-02-27T15:29:52.626Z,101655.40
2023-02-27T15:32:29.363Z,101659.96
2023-02-27T15:34:59.731Z,101661.53
2023-02-27T15:37:30.976Z,101665.66
2023-02-27T15:40:00.379Z,101667.03
2023-02-27T15:42:37.649Z,101669.05
2023-02-27T15:45:06.982Z,101672.67
2023-02-27T15:47:35.608Z,101676.33
2023-02-27T15:50:24.709Z,101678.68
2023-02-27T15:52:58.824Z,101685.79
2023-02-27T15:55:30.940Z,101694.91
2023-02-27T15:58:03.400Z,101700.63
2023-02-27T16:00:34.166Z,101702.99
2023-02-27T16:03:02.369Z,101705.77
2023-02-27T16:05:37.957Z,101709.34
2023-02-27T16:08:07.020Z,101714.70
2023-02-27T16:10:42.756Z,101719.71
2023-02-27T16:13:33.656Z,101727.52
2023-02-27T16:16:21.442Z,101733.52
2023-02-27T16:18:52.333Z,101732.20
2023-02-27T16:21:25.309Z,101736.46
2023-02-27T16:23:54.611Z,101736.44
2023-02-27T16:26:38.657Z,101735.79
2023-02-27T16:29:18.623Z,101738.50
2023-02-27T16:31:54.862Z,101743.14
2023-02-27T16:34:42.890Z,101745.00
2023-02-27T16:37:27.238Z,101751.73
2023-02-27T16:39:55.181Z,101753.05
2023-02-27T16:42:23.195Z,101760.19
2023-02-27T16:44:51.060Z,101765.63
2023-02-27T16:47:19.027Z,101766.45
2023-02-27T16:49:47.520Z,101768.70
2023-02-27T16:52:15.369Z,101770.30
2023-02-27T16:54:43.912Z,101773.80
2023-02-27T16:57:11.960Z,101772.89
2023-02-27T16:59:41.588Z,101774.73
2023-02-27T17:02:15.082Z,101780.77
2023-02-27T17:04:48.109Z,101778.48
2023-02-27T17:07:17.469Z,101783.08
2023-02-27T17:09:46.924Z,101788.89
2023-02-27T17:12:15.200Z,101790.11
2023-02-27T17:14:43.059Z,101791.58
2023-02-27T17:17:11.556Z,101796.91
2023-02-27T17:19:39.517Z,101800.98
2023-02-27T17:22:07.381Z,101807.13
2023-02-27T17:24:35.138Z,101811.20
2023-02-27T17:27:03.424Z,101814.44
2023-02-27T17:29:31.282Z,101817.61
2023-02-27T17:31:59.195Z,101819.06
2023-02-27T17:34:27.013Z,101818.77
2023-02-27T17:36:55.003Z,101828.90
2023-02-27T17:39:23.077Z,101831.61
2023-02-27T17:41:53.069Z,101832.08
2023-02-27T17:44:21.752Z,101834.06
2023-02-27T17:46:49.615Z,101833.23
2023-02-27T17:49:17.384Z,101834.45
2023-02-27T17:51:45.142Z,101835.91
2023-02-27T17:54:13.052Z,101835.37
2023-02-27T17:56:40.972Z,101834.02
2023-02-27T17:59:08.908Z,101839.02
2023-02-27T18:01:37.079Z,101845.33
2023-02-27T18:04:07.135Z,101845.25
2023-02-27T18:06:34.995Z,101844.66
2023-02-27T18:09:03.534Z,101841.13
2023-02-27T18:11:31.671Z,101842.61
2023-02-27T18:14:00.671Z,101845.52
2023-02-27T18:16:28.725Z,101846.52
2023-02-27T18:18:56.801Z,101844.83
2023-02-27T18:21:25.757Z,101847.91
2023-02-27T18:23:53.555Z,101847.36
2023-02-27T18:26:32.627Z,101850.66
2023-02-27T18:29:05.044Z,101852.52
2023-02-27T18:31:42.905Z,101854.52
2023-02-27T18:34:11.447Z,101854.66
2023-02-27T18:36:39.708Z,101855.05
2023-02-27T18:39:08.804Z,101853.40
2023-02-27T18:41:38.825Z,101858.30
2023-02-27T18:44:07.502Z,101860.64
2023-02-27T18:46:36.854Z,101864.58
2023-02-27T18:49:05.079Z,101861.48
2023-02-27T18:51:32.939Z,101862.36
2023-02-27T18:54:00.981Z,101863.86
2023-02-27T18:56:30.687Z,101861.45
2023-02-27T18:59:03.302Z,101859.61
2023-02-27T19:01:37.239Z,101861.14
2023-02-27T19:04:09.915Z,101857.48
2023-02-27T19:06:42.199Z,101854.98
2023-02-27T19:09:17.961Z,101855.61
2023-02-27T19:11:47.292Z,101855.09
2023-02-27T19:14:16.350Z,101857.39
2023-02-27T19:16:46.263Z,101856.20
2023-02-27T19:19:14.182Z,101856.52
2023-02-27T19:21:42.143Z,101859.95
2023-02-27T19:24:14.812Z,101860.32
2023-02-27T19:26:43.018Z,101859.60
2023-02-27T19:29:11.079Z,101858.03
2023-02-27T19:31:39.384Z,101861.98
2023-02-27T19:34:07.632Z,101870.32
2023-02-27T19:36:35.398Z,101871.52
2023-02-27T19:39:04.285Z,101872.98
2023-02-27T19:41:33.581Z,101879.17
2023-02-27T19:44:01.792Z,101880.48
2023-02-27T19:46:33.105Z,101885.82
2023-02-27T19:49:05.571Z,101882.38
2023-02-27T19:51:34.208Z,101878.30
2023-02-27T19:54:02.048Z,101879.10
2023-02-27T19:56:30.378Z,101883.62
2023-02-27T19:59:00.330Z,101887.88
2023-02-27T20:01:33.259Z,101887.59
2023-02-27T20:04:02.102Z,101890.78
2023-02-27T20:06:32.235Z,101893.33
2023-02-27T20:09:00.683Z,101893.46
2023-02-27T20:11:32.803Z,101893.20
2023-02-27T20:14:00.787Z,101895.77
2023-02-27T20:16:30.830Z,101899.89
2023-02-27T20:18:59.011Z,101900.98
2023-02-27T20:21:28.970Z,101899.41
2023-02-27T20:23:58.180Z,101897.20
2023-02-27T20:26:26.630Z,101894.31
2023-02-27T20:28:56.610Z,101896.33
2023-02-27T20:31:28.462Z,101899.53
2023-02-27T20:33:57.883Z,101896.86
2023-02-27T20:36:25.827Z,101899.81
2023-02-27T20:38:53.910Z,101901.98
2023-02-27T20:41:23.518Z,101901.88
2023-02-27T20:43:52.215Z,101899.02
2023-02-27T20:46:23.757Z,101899.36
2023-02-27T20:48:52.368Z,101904.14
2023-02-27T20:51:25.220Z,101902.49
2023-02-27T20:53:56.323Z,101905.20
2023-02-27T20:56:30.177Z,101903.61
2023-02-27T20:58:59.877Z,101907.91
2023-02-27T21:01:28.337Z,101910.98
2023-02-27T21:03:58.078Z,101915.48
2023-02-27T21:06:26.546Z,101917.50
2023-02-27T21:08:57.187Z,101918.17
2023-02-27T21:11:29.522Z,101919.86
2023-02-27T21:13:59.622Z,101922.30
2023-02-27T21:16:27.368Z,101926.60
2023-02-27T21:18:56.815Z,101923.73
2023-02-27T21:21:29.178Z,101923.59
2023-02-27T21:23:58.206Z,101927.81
2023-02-27T21:26:29.450Z,101926.02
2023-02-27T21:29:03.695Z,101926.81
2023-02-27T21:31:33.497Z,101922.85
2023-02-27T21:34:03.376Z,101922.76
2023-02-27T21:36:36.359Z,101922.89
2023-02-27T21:39:07.307Z,101927.02
2023-02-27T21:41:35.702Z,101930.81
2023-02-27T21:44:06.616Z,101934.67
2023-02-27T21:46:34.680Z,101935.12
2023-02-27T21:49:02.859Z,101941.58
2023-02-27T21:51:39.982Z,101943.40
2023-02-27T21:54:11.661Z,101943.23
2023-02-27T21:56:41.788Z,101948.73
2023-02-27T21:59:10.017Z,101951.30
2023-02-27T22:01:38.985Z,101951.29
2023-02-27T22:04:07.282Z,101956.72
2023-02-27T22:06:35.740Z,101957.05
2023-02-27T22:09:06.060Z,101951.23
2023-02-27T22:11:34.700Z,101952.55
2023-02-27T22:14:03.799Z,101954.09
2023-02-27T22:16:31.703Z,101958.39
2023-02-27T22:19:00.166Z,101956.82
2023-02-27T22:21:28.697Z,101955.33
2023-02-27T22:23:57.984Z,101954.13
2023-02-27T22:26:28.395Z,101954.73
2023-02-27T22:28:59.546Z,101954.91
2023-02-27T22:31:33.414Z,101953.23
2023-02-27T22:34:05.604Z,101954.84
2023-02-27T22:36:33.986Z,101956.48
2023-02-27T22:39:02.254Z,101955.04
2023-02-27T22:41:32.718Z,101955.73
2023-02-27T22:44:02.310Z,101958.46
2023-02-27T22:46:39.198Z,101963.88
2023-02-27T22:49:15.729Z,101963.33
2023-02-27T22:51:44.212Z,101964.00
2023-02-27T22:54:13.692Z,101966.42
2023-02-27T22:56:42.097Z,101963.23
2023-02-27T22:59:10.533Z,101966.23
2023-02-27T23:01:38.694Z,101965.10
2023-02-27T23:04:09.093Z,101966.11
2023-02-27T23:06:40.420Z,101968.23
2023-02-27T23:09:11.264Z,101966.71
2023-02-27T23:11:39.525Z,101967.35
2023-02-27T23:14:07.347Z,101968.67
2023-02-27T23:16:35.798Z,101973.63
2023-02-27T23:19:04.963Z,101975.37
2023-02-27T23:21:35.095Z,101977.16
2023-02-27T23:24:06.620Z,101979.64
2023-02-27T23:26:39.541Z,101978.53
2023-02-27T23:29:08.922Z,101977.39
2023-02-27T23:31:37.723Z,101978.13
2023-02-27T23:34:06.761Z,101980.59
2023-02-27T23:36:38.840Z,101983.46
2023-02-27T23:39:07.987Z,101981.08
2023-02-27T23:41:36.256Z,101983.34
2023-02-27T23:44:04.429Z,101985.17
2023-02-27T23:46:32.606Z,101987.85
2023-02-27T23:49:01.908Z,101989.27
2023-02-27T23:51:30.882Z,101988.34
2023-02-27T23:53:59.937Z,101991.42
2023-02-27T23:56:30.324Z,101987.05
2023-02-27T23:59:04.467Z,101986.23
